sensor_id;sensor_type;location;lat;lon;timestamp;temperature;humidity
84440;SHT31;74675;51.980;5.730;2024-02-15T00:00:54;14.1;84.5
84440;SHT31;74675;51.980;5.730;2024-02-15T00:03:24;14.1;84.4
84440;SHT31;74675;51.980;5.730;2024-02-15T00:05:53;14.2;84.4
84440;SHT31;74675;51.980;5.730;2024-02-15T00:08:24;14.2;84.2
84440;SHT31;74675;51.980;5.730;2024-02-15T00:10:53;14.2;84.2
84440;SHT31;74675;51.980;5.730;2024-02-15T00:13:22;14.2;84.0
84440;SHT31;74675;51.980;5.730;2024-02-15T00:15:51;14.2;83.9
84440;SHT31;74675;51.980;5.730;2024-02-15T00:18:20;14.2;83.9
84440;SHT31;74675;51.980;5.730;2024-02-15T00:20:48;14.2;83.8
84440;SHT31;74675;51.980;5.730;2024-02-15T00:23:17;14.2;83.8
84440;SHT31;74675;51.980;5.730;2024-02-15T00:25:45;14.2;83.7
84440;SHT31;74675;51.980;5.730;2024-02-15T00:28:16;14.3;83.7
84440;SHT31;74675;51.980;5.730;2024-02-15T00:30:46;14.3;83.6
84440;SHT31;74675;51.980;5.730;2024-02-15T00:33:15;14.3;83.5
84440;SHT31;74675;51.980;5.730;2024-02-15T00:35:43;14.3;83.3
84440;SHT31;74675;51.980;5.730;2024-02-15T00:38:12;14.3;83.4
84440;SHT31;74675;51.980;5.730;2024-02-15T00:40:41;14.3;83.4
84440;SHT31;74675;51.980;5.730;2024-02-15T00:43:10;14.3;83.4
84440;SHT31;74675;51.980;5.730;2024-02-15T00:45:39;14.3;83.4
84440;SHT31;74675;51.980;5.730;2024-02-15T00:48:10;14.3;83.4
84440;SHT31;74675;51.980;5.730;2024-02-15T00:50:39;14.3;83.4
84440;SHT31;74675;51.980;5.730;2024-02-15T00:53:07;14.4;83.4
84440;SHT31;74675;51.980;5.730;2024-02-15T00:55:36;14.4;83.2
84440;SHT31;74675;51.980;5.730;2024-02-15T00:58:05;14.4;83.2
84440;SHT31;74675;51.980;5.730;2024-02-15T01:00:33;14.4;83.3
84440;SHT31;74675;51.980;5.730;2024-02-15T01:03:02;14.4;83.3
84440;SHT31;74675;51.980;5.730;2024-02-15T01:05:31;14.4;83.2
84440;SHT31;74675;51.980;5.730;2024-02-15T01:08:00;14.4;83.2
84440;SHT31;74675;51.980;5.730;2024-02-15T01:10:29;14.4;83.0
84440;SHT31;74675;51.980;5.730;2024-02-15T01:12:57;14.4;83.1
84440;SHT31;74675;51.980;5.730;2024-02-15T01:15:26;14.4;83.2
84440;SHT31;74675;51.980;5.730;2024-02-15T01:17:56;14.5;83.4
84440;SHT31;74675;51.980;5.730;2024-02-15T01:20:25;14.5;83.4
84440;SHT31;74675;51.980;5.730;2024-02-15T01:22:53;14.5;83.4
84440;SHT31;74675;51.980;5.730;2024-02-15T01:25:22;14.5;83.2
84440;SHT31;74675;51.980;5.730;2024-02-15T01:27:50;14.5;83.2
84440;SHT31;74675;51.980;5.730;2024-02-15T01:30:19;14.5;83.3
84440;SHT31;74675;51.980;5.730;2024-02-15T01:32:48;14.5;83.3
84440;SHT31;74675;51.980;5.730;2024-02-15T01:35:17;14.5;83.3
84440;SHT31;74675;51.980;5.730;2024-02-15T01:37:45;14.5;83.3
84440;SHT31;74675;51.980;5.730;2024-02-15T01:40:16;14.5;83.2
84440;SHT31;74675;51.980;5.730;2024-02-15T01:42:46;14.5;83.2
84440;SHT31;74675;51.980;5.730;2024-02-15T01:45:16;14.5;83.2
84440;SHT31;74675;51.980;5.730;2024-02-15T01:47:46;14.5;82.8
84440;SHT31;74675;51.980;5.730;2024-02-15T01:50:17;14.6;82.6
84440;SHT31;74675;51.980;5.730;2024-02-15T01:52:47;14.6;82.6
84440;SHT31;74675;51.980;5.730;2024-02-15T01:55:17;14.6;82.6
84440;SHT31;74675;51.980;5.730;2024-02-15T01:57:47;14.6;82.6
84440;SHT31;74675;51.980;5.730;2024-02-15T02:00:18;14.6;82.4
84440;SHT31;74675;51.980;5.730;2024-02-15T02:02:47;14.7;82.3
84440;SHT31;74675;51.980;5.730;2024-02-15T02:05:16;14.7;82.3
84440;SHT31;74675;51.980;5.730;2024-02-15T02:07:45;14.7;82.2
84440;SHT31;74675;51.980;5.730;2024-02-15T02:10:14;14.7;82.1
84440;SHT31;74675;51.980;5.730;2024-02-15T02:12:42;14.7;82.0
84440;SHT31;74675;51.980;5.730;2024-02-15T02:15:11;14.7;82.2
84440;SHT31;74675;51.980;5.730;2024-02-15T02:17:40;14.7;82.1
84440;SHT31;74675;51.980;5.730;2024-02-15T02:20:11;14.7;82.0
84440;SHT31;74675;51.980;5.730;2024-02-15T02:22:43;14.7;82.0
84440;SHT31;74675;51.980;5.730;2024-02-15T02:25:14;14.7;81.7
84440;SHT31;74675;51.980;5.730;2024-02-15T02:27:45;14.7;81.7
84440;SHT31;74675;51.980;5.730;2024-02-15T02:30:16;14.7;81.6
84440;SHT31;74675;51.980;5.730;2024-02-15T02:32:45;14.7;81.4
84440;SHT31;74675;51.980;5.730;2024-02-15T02:35:15;14.7;81.5
84440;SHT31;74675;51.980;5.730;2024-02-15T02:37:44;14.7;81.3
84440;SHT31;74675;51.980;5.730;2024-02-15T02:40:15;14.7;81.1
84440;SHT31;74675;51.980;5.730;2024-02-15T02:42:52;14.7;81.1
84440;SHT31;74675;51.980;5.730;2024-02-15T02:45:25;14.7;81.0
84440;SHT31;74675;51.980;5.730;2024-02-15T02:47:54;14.7;80.9
84440;SHT31;74675;51.980;5.730;2024-02-15T02:50:24;14.7;80.9
84440;SHT31;74675;51.980;5.730;2024-02-15T02:52:53;14.7;80.9
84440;SHT31;74675;51.980;5.730;2024-02-15T02:55:22;14.7;80.8
84440;SHT31;74675;51.980;5.730;2024-02-15T02:57:53;14.7;80.9
84440;SHT31;74675;51.980;5.730;2024-02-15T03:00:22;14.7;80.9
84440;SHT31;74675;51.980;5.730;2024-02-15T03:02:51;14.7;81.0
84440;SHT31;74675;51.980;5.730;2024-02-15T03:05:23;14.7;81.0
84440;SHT31;74675;51.980;5.730;2024-02-15T03:07:52;14.6;81.1
84440;SHT31;74675;51.980;5.730;2024-02-15T03:10:21;14.6;81.0
84440;SHT31;74675;51.980;5.730;2024-02-15T03:12:51;14.6;80.8
84440;SHT31;74675;51.980;5.730;2024-02-15T03:15:19;14.6;80.9
84440;SHT31;74675;51.980;5.730;2024-02-15T03:17:49;14.6;80.7
84440;SHT31;74675;51.980;5.730;2024-02-15T03:20:18;14.6;80.7
84440;SHT31;74675;51.980;5.730;2024-02-15T03:22:55;14.6;80.6
84440;SHT31;74675;51.980;5.730;2024-02-15T03:25:25;14.6;80.6
84440;SHT31;74675;51.980;5.730;2024-02-15T03:27:56;14.6;80.5
84440;SHT31;74675;51.980;5.730;2024-02-15T03:30:30;14.6;80.6
84440;SHT31;74675;51.980;5.730;2024-02-15T03:33:02;14.6;80.5
84440;SHT31;74675;51.980;5.730;2024-02-15T03:35:31;14.6;80.5
84440;SHT31;74675;51.980;5.730;2024-02-15T03:38:00;14.6;80.6
84440;SHT31;74675;51.980;5.730;2024-02-15T03:40:29;14.6;80.7
84440;SHT31;74675;51.980;5.730;2024-02-15T03:42:58;14.6;80.7
84440;SHT31;74675;51.980;5.730;2024-02-15T03:45:27;14.5;80.8
84440;SHT31;74675;51.980;5.730;2024-02-15T03:47:57;14.5;80.7
84440;SHT31;74675;51.980;5.730;2024-02-15T03:50:25;14.5;80.7
84440;SHT31;74675;51.980;5.730;2024-02-15T03:52:57;14.5;80.7
84440;SHT31;74675;51.980;5.730;2024-02-15T03:55:27;14.5;80.8
84440;SHT31;74675;51.980;5.730;2024-02-15T03:57:55;14.5;80.7
84440;SHT31;74675;51.980;5.730;2024-02-15T04:00:24;14.5;80.7
84440;SHT31;74675;51.980;5.730;2024-02-15T04:02:52;14.5;80.6
84440;SHT31;74675;51.980;5.730;2024-02-15T04:05:23;14.5;80.7
84440;SHT31;74675;51.980;5.730;2024-02-15T04:07:51;14.4;80.5
84440;SHT31;74675;51.980;5.730;2024-02-15T04:10:20;14.4;80.6
84440;SHT31;74675;51.980;5.730;2024-02-15T04:12:49;14.4;80.6
84440;SHT31;74675;51.980;5.730;2024-02-15T04:15:20;14.4;80.7
84440;SHT31;74675;51.980;5.730;2024-02-15T04:17:49;14.4;80.9
84440;SHT31;74675;51.980;5.730;2024-02-15T04:20:24;14.4;80.9
84440;SHT31;74675;51.980;5.730;2024-02-15T04:22:53;14.4;80.9
84440;SHT31;74675;51.980;5.730;2024-02-15T04:25:23;14.4;80.9
84440;SHT31;74675;51.980;5.730;2024-02-15T04:27:54;14.4;80.8
84440;SHT31;74675;51.980;5.730;2024-02-15T04:30:24;14.4;80.8
84440;SHT31;74675;51.980;5.730;2024-02-15T04:32:52;14.4;80.8
84440;SHT31;74675;51.980;5.730;2024-02-15T04:35:21;14.4;80.9
84440;SHT31;74675;51.980;5.730;2024-02-15T04:37:50;14.4;80.9
84440;SHT31;74675;51.980;5.730;2024-02-15T04:40:20;14.3;81.0
84440;SHT31;74675;51.980;5.730;2024-02-15T04:42:48;14.3;81.1
84440;SHT31;74675;51.980;5.730;2024-02-15T04:45:17;14.3;81.2
84440;SHT31;74675;51.980;5.730;2024-02-15T04:47:48;14.3;81.3
84440;SHT31;74675;51.980;5.730;2024-02-15T04:50:20;14.3;81.5
84440;SHT31;74675;51.980;5.730;2024-02-15T04:52:48;14.4;81.7
84440;SHT31;74675;51.980;5.730;2024-02-15T04:55:17;14.4;81.8
84440;SHT31;74675;51.980;5.730;2024-02-15T04:57:46;14.4;81.8
84440;SHT31;74675;51.980;5.730;2024-02-15T05:00:16;14.4;81.8
84440;SHT31;74675;51.980;5.730;2024-02-15T05:02:47;14.4;82.2
84440;SHT31;74675;51.980;5.730;2024-02-15T05:05:16;14.4;82.1
84440;SHT31;74675;51.980;5.730;2024-02-15T05:07:44;14.4;82.0
84440;SHT31;74675;51.980;5.730;2024-02-15T05:10:15;14.4;81.9
84440;SHT31;74675;51.980;5.730;2024-02-15T05:12:44;14.4;81.9
84440;SHT31;74675;51.980;5.730;2024-02-15T05:15:15;14.4;82.1
84440;SHT31;74675;51.980;5.730;2024-02-15T05:17:45;14.4;82.2
84440;SHT31;74675;51.980;5.730;2024-02-15T05:20:15;14.4;82.4
84440;SHT31;74675;51.980;5.730;2024-02-15T05:22:47;14.4;82.4
84440;SHT31;74675;51.980;5.730;2024-02-15T05:25:15;14.4;82.3
84440;SHT31;74675;51.980;5.730;2024-02-15T05:27:48;14.4;82.3
84440;SHT31;74675;51.980;5.730;2024-02-15T05:30:17;14.4;82.4
84440;SHT31;74675;51.980;5.730;2024-02-15T05:32:46;14.4;82.4
84440;SHT31;74675;51.980;5.730;2024-02-15T05:35:16;14.3;82.5
84440;SHT31;74675;51.980;5.730;2024-02-15T05:37:45;14.3;82.7
84440;SHT31;74675;51.980;5.730;2024-02-15T05:40:16;14.2;82.8
84440;SHT31;74675;51.980;5.730;2024-02-15T05:42:45;14.2;83.2
84440;SHT31;74675;51.980;5.730;2024-02-15T05:45:30;14.2;83.5
84440;SHT31;74675;51.980;5.730;2024-02-15T05:48:05;14.1;83.9
84440;SHT31;74675;51.980;5.730;2024-02-15T05:50:39;14.1;84.1
84440;SHT31;74675;51.980;5.730;2024-02-15T05:53:07;14.1;84.3
84440;SHT31;74675;51.980;5.730;2024-02-15T05:55:36;14.1;84.4
84440;SHT31;74675;51.980;5.730;2024-02-15T05:58:07;14.1;84.5
84440;SHT31;74675;51.980;5.730;2024-02-15T06:00:37;14.1;84.2
84440;SHT31;74675;51.980;5.730;2024-02-15T06:03:07;14.1;84.1
84440;SHT31;74675;51.980;5.730;2024-02-15T06:05:35;14.1;83.9
84440;SHT31;74675;51.980;5.730;2024-02-15T06:08:05;14.1;83.8
84440;SHT31;74675;51.980;5.730;2024-02-15T06:10:34;14.1;83.6
84440;SHT31;74675;51.980;5.730;2024-02-15T06:13:04;14.1;83.6
84440;SHT31;74675;51.980;5.730;2024-02-15T06:15:35;14.2;83.4
84440;SHT31;74675;51.980;5.730;2024-02-15T06:18:03;14.2;83.3
84440;SHT31;74675;51.980;5.730;2024-02-15T06:20:35;14.2;83.0
84440;SHT31;74675;51.980;5.730;2024-02-15T06:23:06;14.3;82.9
84440;SHT31;74675;51.980;5.730;2024-02-15T06:25:34;14.3;82.9
84440;SHT31;74675;51.980;5.730;2024-02-15T06:28:05;14.3;82.9
84440;SHT31;74675;51.980;5.730;2024-02-15T06:30:39;14.3;82.9
84440;SHT31;74675;51.980;5.730;2024-02-15T06:33:24;14.4;82.9
84440;SHT31;74675;51.980;5.730;2024-02-15T06:36:09;14.4;82.6
84440;SHT31;74675;51.980;5.730;2024-02-15T06:38:54;14.3;82.4
84440;SHT31;74675;51.980;5.730;2024-02-15T06:41:39;14.3;82.6
84440;SHT31;74675;51.980;5.730;2024-02-15T06:44:07;14.3;82.6
84440;SHT31;74675;51.980;5.730;2024-02-15T06:46:36;14.3;82.6
84440;SHT31;74675;51.980;5.730;2024-02-15T06:49:07;14.2;82.9
84440;SHT31;74675;51.980;5.730;2024-02-15T06:51:35;14.2;82.9
84440;SHT31;74675;51.980;5.730;2024-02-15T06:54:04;14.2;83.0
84440;SHT31;74675;51.980;5.730;2024-02-15T06:56:36;14.2;83.2
84440;SHT31;74675;51.980;5.730;2024-02-15T06:59:06;14.2;83.2
84440;SHT31;74675;51.980;5.730;2024-02-15T07:01:36;14.2;83.3
84440;SHT31;74675;51.980;5.730;2024-02-15T07:04:05;14.2;83.3
84440;SHT31;74675;51.980;5.730;2024-02-15T07:06:36;14.1;83.5
84440;SHT31;74675;51.980;5.730;2024-02-15T07:09:05;14.1;83.8
84440;SHT31;74675;51.980;5.730;2024-02-15T07:11:34;14.1;84.1
84440;SHT31;74675;51.980;5.730;2024-02-15T07:14:03;14.1;84.0
84440;SHT31;74675;51.980;5.730;2024-02-15T07:16:33;14.1;84.1
84440;SHT31;74675;51.980;5.730;2024-02-15T07:19:02;14.1;84.1
84440;SHT31;74675;51.980;5.730;2024-02-15T07:21:34;14.1;83.8
84440;SHT31;74675;51.980;5.730;2024-02-15T07:24:02;14.1;83.8
84440;SHT31;74675;51.980;5.730;2024-02-15T07:26:33;14.1;83.9
84440;SHT31;74675;51.980;5.730;2024-02-15T07:29:03;14.1;84.0
84440;SHT31;74675;51.980;5.730;2024-02-15T07:31:34;14.1;84.0
84440;SHT31;74675;51.980;5.730;2024-02-15T07:34:03;14.1;84.0
84440;SHT31;74675;51.980;5.730;2024-02-15T07:36:31;14.1;83.9
84440;SHT31;74675;51.980;5.730;2024-02-15T07:39:00;14.1;83.9
84440;SHT31;74675;51.980;5.730;2024-02-15T07:41:29;14.1;84.0
84440;SHT31;74675;51.980;5.730;2024-02-15T07:43:59;14.1;84.1
84440;SHT31;74675;51.980;5.730;2024-02-15T07:46:28;14.2;84.2
84440;SHT31;74675;51.980;5.730;2024-02-15T07:48:56;14.2;84.3
84440;SHT31;74675;51.980;5.730;2024-02-15T07:51:27;14.2;84.4
84440;SHT31;74675;51.980;5.730;2024-02-15T07:53:56;14.2;84.5
84440;SHT31;74675;51.980;5.730;2024-02-15T07:56:24;14.2;84.3
84440;SHT31;74675;51.980;5.730;2024-02-15T07:58:53;14.2;84.5
84440;SHT31;74675;51.980;5.730;2024-02-15T08:01:22;14.1;84.4
84440;SHT31;74675;51.980;5.730;2024-02-15T08:03:51;14.1;84.4
84440;SHT31;74675;51.980;5.730;2024-02-15T08:06:20;14.1;84.4
84440;SHT31;74675;51.980;5.730;2024-02-15T08:08:51;14.1;84.6
84440;SHT31;74675;51.980;5.730;2024-02-15T08:11:20;14.1;84.7
84440;SHT31;74675;51.980;5.730;2024-02-15T08:13:51;14.0;84.9
84440;SHT31;74675;51.980;5.730;2024-02-15T08:16:22;14.1;84.9
84440;SHT31;74675;51.980;5.730;2024-02-15T08:18:53;14.1;84.8
84440;SHT31;74675;51.980;5.730;2024-02-15T08:21:27;14.1;84.8
84440;SHT31;74675;51.980;5.730;2024-02-15T08:23:57;14.1;84.8
84440;SHT31;74675;51.980;5.730;2024-02-15T08:26:25;14.1;84.7
84440;SHT31;74675;51.980;5.730;2024-02-15T08:28:58;14.1;84.6
84440;SHT31;74675;51.980;5.730;2024-02-15T08:31:27;14.2;84.6
84440;SHT31;74675;51.980;5.730;2024-02-15T08:33:57;14.2;84.7
84440;SHT31;74675;51.980;5.730;2024-02-15T08:36:27;14.2;84.8
84440;SHT31;74675;51.980;5.730;2024-02-15T08:38:57;14.2;84.7
84440;SHT31;74675;51.980;5.730;2024-02-15T08:41:26;14.2;84.6
84440;SHT31;74675;51.980;5.730;2024-02-15T08:43:57;14.2;84.6
84440;SHT31;74675;51.980;5.730;2024-02-15T08:46:30;14.2;84.6
84440;SHT31;74675;51.980;5.730;2024-02-15T08:48:59;14.3;84.5
84440;SHT31;74675;51.980;5.730;2024-02-15T08:51:27;14.3;84.6
84440;SHT31;74675;51.980;5.730;2024-02-15T08:53:56;14.3;84.6
84440;SHT31;74675;51.980;5.730;2024-02-15T08:56:26;14.3;84.5
84440;SHT31;74675;51.980;5.730;2024-02-15T08:58:56;14.3;84.6
84440;SHT31;74675;51.980;5.730;2024-02-15T09:01:26;14.3;84.5
84440;SHT31;74675;51.980;5.730;2024-02-15T09:03:54;14.3;84.6
84440;SHT31;74675;51.980;5.730;2024-02-15T09:06:23;14.3;84.5
84440;SHT31;74675;51.980;5.730;2024-02-15T09:08:52;14.3;84.7
84440;SHT31;74675;51.980;5.730;2024-02-15T09:11:21;14.3;84.7
84440;SHT31;74675;51.980;5.730;2024-02-15T09:13:49;14.3;84.5
84440;SHT31;74675;51.980;5.730;2024-02-15T09:16:18;14.3;84.6
84440;SHT31;74675;51.980;5.730;2024-02-15T09:18:48;14.3;84.8
84440;SHT31;74675;51.980;5.730;2024-02-15T09:21:16;14.3;84.7
84440;SHT31;74675;51.980;5.730;2024-02-15T09:23:45;14.3;84.5
84440;SHT31;74675;51.980;5.730;2024-02-15T09:26:15;14.3;84.4
84440;SHT31;74675;51.980;5.730;2024-02-15T09:28:46;14.3;84.3
84440;SHT31;74675;51.980;5.730;2024-02-15T09:31:14;14.3;84.4
84440;SHT31;74675;51.980;5.730;2024-02-15T09:33:43;14.3;84.7
84440;SHT31;74675;51.980;5.730;2024-02-15T09:36:14;14.3;84.6
84440;SHT31;74675;51.980;5.730;2024-02-15T09:38:43;14.3;84.7
84440;SHT31;74675;51.980;5.730;2024-02-15T09:41:13;14.4;84.6
84440;SHT31;74675;51.980;5.730;2024-02-15T09:43:43;14.4;84.6
84440;SHT31;74675;51.980;5.730;2024-02-15T09:46:12;14.4;84.1
84440;SHT31;74675;51.980;5.730;2024-02-15T09:48:50;14.4;83.9
84440;SHT31;74675;51.980;5.730;2024-02-15T09:51:25;14.4;83.8
84440;SHT31;74675;51.980;5.730;2024-02-15T09:53:57;14.4;83.7
84440;SHT31;74675;51.980;5.730;2024-02-15T09:56:28;14.4;83.7
84440;SHT31;74675;51.980;5.730;2024-02-15T09:59:00;14.4;83.7
84440;SHT31;74675;51.980;5.730;2024-02-15T10:01:31;14.4;83.9
84440;SHT31;74675;51.980;5.730;2024-02-15T10:04:05;14.4;84.1
84440;SHT31;74675;51.980;5.730;2024-02-15T10:06:35;14.4;84.0
84440;SHT31;74675;51.980;5.730;2024-02-15T10:09:25;14.4;84.0
84440;SHT31;74675;51.980;5.730;2024-02-15T10:11:56;14.4;83.8
84440;SHT31;74675;51.980;5.730;2024-02-15T10:14:28;14.4;83.9
84440;SHT31;74675;51.980;5.730;2024-02-15T10:16:57;14.4;83.7
84440;SHT31;74675;51.980;5.730;2024-02-15T10:19:31;14.4;83.6
84440;SHT31;74675;51.980;5.730;2024-02-15T10:22:06;14.4;83.5
84440;SHT31;74675;51.980;5.730;2024-02-15T10:24:36;14.4;83.4
84440;SHT31;74675;51.980;5.730;2024-02-15T10:27:06;14.4;83.2
84440;SHT31;74675;51.980;5.730;2024-02-15T10:29:37;14.4;83.2
84440;SHT31;74675;51.980;5.730;2024-02-15T10:32:06;14.4;83.3
84440;SHT31;74675;51.980;5.730;2024-02-15T10:34:46;14.5;83.3
84440;SHT31;74675;51.980;5.730;2024-02-15T10:37:15;14.5;83.3
84440;SHT31;74675;51.980;5.730;2024-02-15T10:39:45;14.5;83.3
84440;SHT31;74675;51.980;5.730;2024-02-15T10:42:16;14.5;83.3
84440;SHT31;74675;51.980;5.730;2024-02-15T10:44:46;14.5;83.3
84440;SHT31;74675;51.980;5.730;2024-02-15T10:47:19;14.5;83.5
84440;SHT31;74675;51.980;5.730;2024-02-15T10:49:49;14.5;83.2
84440;SHT31;74675;51.980;5.730;2024-02-15T10:52:20;14.6;83.3
84440;SHT31;74675;51.980;5.730;2024-02-15T10:54:52;14.6;83.2
84440;SHT31;74675;51.980;5.730;2024-02-15T10:57:21;14.6;83.3
84440;SHT31;74675;51.980;5.730;2024-02-15T10:59:55;14.6;83.4
84440;SHT31;74675;51.980;5.730;2024-02-15T11:02:33;14.6;83.4
84440;SHT31;74675;51.980;5.730;2024-02-15T11:05:06;14.6;83.3
84440;SHT31;74675;51.980;5.730;2024-02-15T11:07:36;14.6;83.5
84440;SHT31;74675;51.980;5.730;2024-02-15T11:10:06;14.6;83.5
84440;SHT31;74675;51.980;5.730;2024-02-15T11:12:37;14.7;83.3
84440;SHT31;74675;51.980;5.730;2024-02-15T11:15:08;14.7;83.1
84440;SHT31;74675;51.980;5.730;2024-02-15T11:17:48;14.7;82.9
84440;SHT31;74675;51.980;5.730;2024-02-15T11:20:48;14.7;82.9
84440;SHT31;74675;51.980;5.730;2024-02-15T11:23:26;14.8;82.6
84440;SHT31;74675;51.980;5.730;2024-02-15T11:25:57;14.8;82.7
84440;SHT31;74675;51.980;5.730;2024-02-15T11:28:40;14.8;82.5
84440;SHT31;74675;51.980;5.730;2024-02-15T11:31:09;14.9;82.5
84440;SHT31;74675;51.980;5.730;2024-02-15T11:33:39;14.9;82.4
84440;SHT31;74675;51.980;5.730;2024-02-15T11:36:08;14.9;82.4
84440;SHT31;74675;51.980;5.730;2024-02-15T11:38:39;15.0;82.5
84440;SHT31;74675;51.980;5.730;2024-02-15T11:41:10;15.0;82.4
84440;SHT31;74675;51.980;5.730;2024-02-15T11:43:52;15.0;82.5
84440;SHT31;74675;51.980;5.730;2024-02-15T11:46:25;15.1;82.6
84440;SHT31;74675;51.980;5.730;2024-02-15T11:48:57;15.1;82.7
84440;SHT31;74675;51.980;5.730;2024-02-15T11:51:31;15.2;82.8
84440;SHT31;74675;51.980;5.730;2024-02-15T11:54:05;15.2;82.8
84440;SHT31;74675;51.980;5.730;2024-02-15T11:56:55;15.3;82.4
84440;SHT31;74675;51.980;5.730;2024-02-15T11:59:43;15.4;82.2
84440;SHT31;74675;51.980;5.730;2024-02-15T12:02:28;15.5;81.3
84440;SHT31;74675;51.980;5.730;2024-02-15T12:07:06;15.6;80.9
84440;SHT31;74675;51.980;5.730;2024-02-15T12:10:00;15.6;80.6
84440;SHT31;74675;51.980;5.730;2024-02-15T12:12:53;15.7;80.3
84440;SHT31;74675;51.980;5.730;2024-02-15T12:15:38;15.7;80.4
84440;SHT31;74675;51.980;5.730;2024-02-15T12:18:23;15.8;80.8
84440;SHT31;74675;51.980;5.730;2024-02-15T12:21:14;15.8;79.7
84440;SHT31;74675;51.980;5.730;2024-02-15T12:23:44;15.9;79.2
84440;SHT31;74675;51.980;5.730;2024-02-15T12:26:16;15.9;79.4
84440;SHT31;74675;51.980;5.730;2024-02-15T12:28:50;15.9;78.1
84440;SHT31;74675;51.980;5.730;2024-02-15T12:31:21;16.0;79.2
84440;SHT31;74675;51.980;5.730;2024-02-15T12:34:01;16.0;78.2
84440;SHT31;74675;51.980;5.730;2024-02-15T12:36:33;16.0;77.8
84440;SHT31;74675;51.980;5.730;2024-02-15T12:39:04;16.0;78.4
84440;SHT31;74675;51.980;5.730;2024-02-15T12:41:37;16.0;78.6
84440;SHT31;74675;51.980;5.730;2024-02-15T12:44:07;16.1;78.3
84440;SHT31;74675;51.980;5.730;2024-02-15T12:46:37;16.1;78.6
84440;SHT31;74675;51.980;5.730;2024-02-15T12:49:27;16.2;79.0
84440;SHT31;74675;51.980;5.730;2024-02-15T12:51:54;16.2;78.8
84440;SHT31;74675;51.980;5.730;2024-02-15T12:54:23;16.3;78.6
84440;SHT31;74675;51.980;5.730;2024-02-15T12:57:08;16.3;78.9
84440;SHT31;74675;51.980;5.730;2024-02-15T12:59:39;16.4;77.3
84440;SHT31;74675;51.980;5.730;2024-02-15T13:02:08;16.4;77.8
84440;SHT31;74675;51.980;5.730;2024-02-15T13:04:41;16.5;77.1
84440;SHT31;74675;51.980;5.730;2024-02-15T13:07:09;16.5;77.0
84440;SHT31;74675;51.980;5.730;2024-02-15T13:09:40;16.5;77.2
84440;SHT31;74675;51.980;5.730;2024-02-15T13:12:09;16.6;77.1
84440;SHT31;74675;51.980;5.730;2024-02-15T13:14:38;16.6;76.2
84440;SHT31;74675;51.980;5.730;2024-02-15T13:17:07;16.6;76.0
84440;SHT31;74675;51.980;5.730;2024-02-15T13:19:35;16.7;76.4
84440;SHT31;74675;51.980;5.730;2024-02-15T13:22:06;16.7;76.5
84440;SHT31;74675;51.980;5.730;2024-02-15T13:24:35;16.8;76.7
84440;SHT31;74675;51.980;5.730;2024-02-15T13:27:05;16.8;75.8
84440;SHT31;74675;51.980;5.730;2024-02-15T13:29:36;16.8;77.2
84440;SHT31;74675;51.980;5.730;2024-02-15T13:32:06;16.9;75.8
84440;SHT31;74675;51.980;5.730;2024-02-15T13:34:38;16.9;75.3
84440;SHT31;74675;51.980;5.730;2024-02-15T13:37:10;17.0;75.2
84440;SHT31;74675;51.980;5.730;2024-02-15T13:39:40;17.0;74.8
84440;SHT31;74675;51.980;5.730;2024-02-15T13:42:12;17.1;74.6
84440;SHT31;74675;51.980;5.730;2024-02-15T13:44:40;17.1;74.5
84440;SHT31;74675;51.980;5.730;2024-02-15T13:47:09;17.1;75.1
84440;SHT31;74675;51.980;5.730;2024-02-15T13:49:39;17.1;74.2
84440;SHT31;74675;51.980;5.730;2024-02-15T13:52:08;17.1;74.8
84440;SHT31;74675;51.980;5.730;2024-02-15T13:54:39;17.2;73.7
84440;SHT31;74675;51.980;5.730;2024-02-15T13:57:09;17.2;74.2
84440;SHT31;74675;51.980;5.730;2024-02-15T13:59:38;17.2;73.5
84440;SHT31;74675;51.980;5.730;2024-02-15T14:02:06;17.2;74.2
84440;SHT31;74675;51.980;5.730;2024-02-15T14:04:35;17.3;74.2
84440;SHT31;74675;51.980;5.730;2024-02-15T14:07:05;17.3;73.1
84440;SHT31;74675;51.980;5.730;2024-02-15T14:09:35;17.3;73.9
84440;SHT31;74675;51.980;5.730;2024-02-15T14:12:04;17.4;73.6
84440;SHT31;74675;51.980;5.730;2024-02-15T14:14:33;17.4;72.9
84440;SHT31;74675;51.980;5.730;2024-02-15T14:17:02;17.5;72.9
84440;SHT31;74675;51.980;5.730;2024-02-15T14:19:30;17.5;72.7
84440;SHT31;74675;51.980;5.730;2024-02-15T14:21:59;17.6;73.3
84440;SHT31;74675;51.980;5.730;2024-02-15T14:24:28;17.6;73.8
84440;SHT31;74675;51.980;5.730;2024-02-15T14:26:56;17.7;72.0
84440;SHT31;74675;51.980;5.730;2024-02-15T14:29:25;17.8;72.6
84440;SHT31;74675;51.980;5.730;2024-02-15T14:31:58;17.9;71.2
84440;SHT31;74675;51.980;5.730;2024-02-15T14:34:43;17.9;71.1
84440;SHT31;74675;51.980;5.730;2024-02-15T14:37:12;18.0;71.1
84440;SHT31;74675;51.980;5.730;2024-02-15T14:39:40;18.0;70.5
84440;SHT31;74675;51.980;5.730;2024-02-15T14:42:09;18.0;69.9
84440;SHT31;74675;51.980;5.730;2024-02-15T14:44:38;17.9;70.0
84440;SHT31;74675;51.980;5.730;2024-02-15T14:47:11;17.9;70.2
84440;SHT31;74675;51.980;5.730;2024-02-15T14:49:40;17.9;70.7
84440;SHT31;74675;51.980;5.730;2024-02-15T14:52:10;17.9;71.1
84440;SHT31;74675;51.980;5.730;2024-02-15T14:54:42;17.9;71.6
84440;SHT31;74675;51.980;5.730;2024-02-15T14:57:11;17.9;71.2
84440;SHT31;74675;51.980;5.730;2024-02-15T14:59:39;17.9;71.0
84440;SHT31;74675;51.980;5.730;2024-02-15T15:02:09;17.9;70.7
84440;SHT31;74675;51.980;5.730;2024-02-15T15:04:39;17.9;70.7
84440;SHT31;74675;51.980;5.730;2024-02-15T15:07:20;17.8;69.9
84440;SHT31;74675;51.980;5.730;2024-02-15T15:10:06;17.8;70.9
84440;SHT31;74675;51.980;5.730;2024-02-15T15:12:51;17.8;70.9
84440;SHT31;74675;51.980;5.730;2024-02-15T15:15:19;17.8;71.4
84440;SHT31;74675;51.980;5.730;2024-02-15T15:17:49;17.8;71.5
84440;SHT31;74675;51.980;5.730;2024-02-15T15:20:18;17.8;71.3
84440;SHT31;74675;51.980;5.730;2024-02-15T15:22:46;17.8;71.0
84440;SHT31;74675;51.980;5.730;2024-02-15T15:25:17;17.8;71.8
84440;SHT31;74675;51.980;5.730;2024-02-15T15:27:46;17.7;71.9
84440;SHT31;74675;51.980;5.730;2024-02-15T15:30:15;17.7;71.9
84440;SHT31;74675;51.980;5.730;2024-02-15T15:32:45;17.7;71.9
84440;SHT31;74675;51.980;5.730;2024-02-15T15:35:14;17.7;72.1
84440;SHT31;74675;51.980;5.730;2024-02-15T15:37:44;17.7;72.1
84440;SHT31;74675;51.980;5.730;2024-02-15T15:40:13;17.7;72.0
84440;SHT31;74675;51.980;5.730;2024-02-15T15:42:42;17.7;71.9
84440;SHT31;74675;51.980;5.730;2024-02-15T15:45:11;17.7;71.9
84440;SHT31;74675;51.980;5.730;2024-02-15T15:47:40;17.7;71.7
84440;SHT31;74675;51.980;5.730;2024-02-15T15:50:09;17.7;71.8
84440;SHT31;74675;51.980;5.730;2024-02-15T15:52:39;17.7;71.9
84440;SHT31;74675;51.980;5.730;2024-02-15T15:55:08;17.7;71.1
84440;SHT31;74675;51.980;5.730;2024-02-15T15:57:37;17.7;71.5
84440;SHT31;74675;51.980;5.730;2024-02-15T16:00:09;17.7;71.6
84440;SHT31;74675;51.980;5.730;2024-02-15T16:02:38;17.7;71.3
84440;SHT31;74675;51.980;5.730;2024-02-15T16:05:08;17.6;71.3
84440;SHT31;74675;51.980;5.730;2024-02-15T16:07:38;17.6;70.6
84440;SHT31;74675;51.980;5.730;2024-02-15T16:10:09;17.6;70.0
84440;SHT31;74675;51.980;5.730;2024-02-15T16:12:39;17.5;69.7
84440;SHT31;74675;51.980;5.730;2024-02-15T16:15:10;17.5;70.3
84440;SHT31;74675;51.980;5.730;2024-02-15T16:17:42;17.5;70.0
84440;SHT31;74675;51.980;5.730;2024-02-15T16:20:12;17.4;69.9
84440;SHT31;74675;51.980;5.730;2024-02-15T16:22:42;17.4;69.8
84440;SHT31;74675;51.980;5.730;2024-02-15T16:25:11;17.4;70.0
84440;SHT31;74675;51.980;5.730;2024-02-15T16:27:41;17.3;70.1